Time;durP1;ratioP1;P1;durP2;ratioP2;P2;SDS_P1;SDS_P2;PMS_P1;PMS_P2;Temp;Humidity;BMP_temperature;BMP_pressure;BME280_temperature;BME280_humidity;BME280_pressure;Samples;Min_cycle;Max_cycle;Signal;HPM_P1;HPM_P2
2022/05/24 00:00:34;;;;;;;4.10;3.28;;;20.00;60.60;;;;;;4955094;28;20109;-76
2022/05/24 00:03:00;;;;;;;4.25;3.38;;;20.00;60.70;;;;;;4954833;28;20018;-77
2022/05/24 00:05:28;;;;;;;4.07;3.20;;;20.00;60.70;;;;;;4955102;28;20031;-76
2022/05/24 00:07:54;;;;;;;4.13;3.13;;;20.00;60.70;;;;;;4971302;28;20041;-76
2022/05/24 00:10:25;;;;;;;4.78;3.40;;;19.90;60.70;;;;;;4971078;28;20033;-75
2022/05/24 00:12:51;;;;;;;4.32;3.33;;;19.90;60.80;;;;;;4971534;28;20045;-76
2022/05/24 00:15:19;;;;;;;4.25;3.40;;;19.90;60.70;;;;;;4960953;28;20126;-76
2022/05/24 00:17:48;;;;;;;4.00;3.47;;;19.90;60.80;;;;;;4974565;28;20138;-76
2022/05/24 00:20:14;;;;;;;4.20;3.22;;;19.90;60.80;;;;;;4955014;28;20040;-76
2022/05/24 00:22:40;;;;;;;5.03;3.80;;;19.90;60.80;;;;;;4954879;28;20031;-76
2022/05/24 00:25:07;;;;;;;4.40;3.65;;;19.90;60.90;;;;;;4971892;28;20097;-76
2022/05/24 00:27:33;;;;;;;4.50;3.05;;;19.90;60.90;;;;;;4954160;28;20034;-76
2022/05/24 00:29:59;;;;;;;4.75;3.60;;;19.90;61.00;;;;;;4970549;28;20487;-77
2022/05/24 00:32:25;;;;;;;4.72;3.75;;;19.80;60.90;;;;;;4971442;28;20030;-77
2022/05/24 00:34:51;;;;;;;4.65;3.63;;;19.80;61.00;;;;;;4954935;28;20045;-76
2022/05/24 00:37:19;;;;;;;5.68;4.50;;;19.80;61.00;;;;;;4954586;28;20441;-76
2022/05/24 00:39:47;;;;;;;4.32;3.58;;;19.80;61.00;;;;;;4971635;28;20033;-75
2022/05/24 00:42:19;;;;;;;4.55;3.67;;;19.80;61.10;;;;;;4972257;28;20065;-76
2022/05/24 00:45:06;;;;;;;5.53;4.05;;;19.70;61.00;;;;;;4969318;28;20050;-76
2022/05/24 00:47:38;;;;;;;5.18;3.85;;;19.70;61.10;;;;;;4951389;28;20042;-76
2022/05/24 00:50:21;;;;;;;4.75;3.80;;;19.70;61.10;;;;;;4971953;28;20440;-75
2022/05/24 00:52:56;;;;;;;5.72;4.20;;;19.70;61.90;;;;;;4949526;28;20023;-76
2022/05/24 00:55:24;;;;;;;4.70;3.78;;;19.60;61.10;;;;;;4973646;28;20453;-76
2022/05/24 00:57:58;;;;;;;4.93;4.25;;;19.70;61.20;;;;;;4950631;29;20035;-76
2022/05/24 01:00:24;;;;;;;5.00;4.30;;;19.60;61.20;;;;;;4951525;28;20472;-76
2022/05/24 01:02:50;;;;;;;5.35;4.38;;;19.60;61.20;;;;;;4969961;28;20375;-77
2022/05/24 01:05:25;;;;;;;5.55;4.43;;;19.60;61.20;;;;;;4971143;28;20039;-75
2022/05/24 01:07:51;;;;;;;6.72;5.07;;;19.60;61.30;;;;;;4964790;28;20034;-76
2022/05/24 01:10:30;;;;;;;6.05;4.90;;;19.60;61.30;;;;;;4971390;28;20019;-77
2022/05/24 01:13:04;;;;;;;5.82;5.00;;;19.60;61.40;;;;;;4970931;28;20035;-76
2022/05/24 01:15:31;;;;;;;6.28;5.20;;;19.60;61.40;;;;;;4969645;28;20031;-77
2022/05/24 01:17:59;;;;;;;6.05;5.22;;;19.50;61.20;;;;;;4954037;28;20031;-76
2022/05/24 01:20:25;;;;;;;7.20;5.45;;;19.50;61.30;;;;;;4952845;28;20034;-77
2022/05/24 01:23:11;;;;;;;6.50;5.38;;;19.50;61.30;;;;;;4970831;28;20340;-77
2022/05/24 01:25:48;;;;;;;6.05;5.10;;;19.50;61.40;;;;;;4970787;28;20085;-76
2022/05/24 01:28:38;;;;;;;6.55;5.85;;;19.50;61.30;;;;;;4953689;28;20051;-76
2022/05/24 01:31:05;;;;;;;6.60;5.25;;;19.50;61.50;;;;;;4971428;28;20122;-76
2022/05/24 01:36:17;;;;;;;7.28;5.72;;;19.40;61.40;;;;;;4979929;28;20097;-76
2022/05/24 01:38:49;;;;;;;7.43;5.75;;;19.40;61.30;;;;;;4968111;28;20082;-76
2022/05/24 01:41:42;;;;;;;7.68;5.70;;;19.40;61.40;;;;;;4965756;28;20030;-76
2022/05/24 01:44:11;;;;;;;7.75;5.78;;;19.40;61.40;;;;;;4994429;28;20038;-76
2022/05/24 01:46:41;;;;;;;7.30;6.35;;;19.40;61.40;;;;;;4968864;28;20058;-77
2022/05/24 01:49:21;;;;;;;7.80;5.97;;;19.40;61.40;;;;;;4969724;28;20105;-75
2022/05/24 01:51:55;;;;;;;7.65;6.82;;;19.40;61.50;;;;;;4964363;28;20023;-76
2022/05/24 01:54:21;;;;;;;7.00;6.30;;;19.40;61.50;;;;;;4970747;28;20030;-76
2022/05/24 01:57:39;;;;;;;7.63;6.82;;;19.30;61.50;;;;;;4952561;28;20038;-76
2022/05/24 02:00:08;;;;;;;8.10;6.78;;;19.30;61.60;;;;;;4967226;28;20038;-75
2022/05/24 02:02:41;;;;;;;;;;;19.30;61.40;;;;;;4967203;28;20031;-76
2022/05/24 02:05:07;;;;;;;6.43;5.22;;;19.30;61.30;;;;;;4973975;28;19910;-76
2022/05/24 02:07:33;;;;;;;7.32;6.35;;;19.30;61.30;;;;;;4956832;28;20042;-75
2022/05/24 02:09:59;;;;;;;8.25;6.85;;;19.20;61.40;;;;;;4973017;28;20456;-75
2022/05/24 02:12:40;;;;;;;7.30;6.43;;;19.20;61.50;;;;;;4975745;28;20157;-76
2022/05/24 02:15:09;;;;;;;7.32;6.60;;;19.20;61.60;;;;;;4970174;28;20093;-76
2022/05/24 02:17:47;;;;;;;8.07;6.75;;;19.20;61.50;;;;;;4973651;28;20057;-76
2022/05/24 02:20:18;;;;;;;8.23;6.93;;;19.20;61.60;;;;;;4965652;28;20106;-76
2022/05/24 02:22:45;;;;;;;8.07;7.10;;;19.20;61.60;;;;;;4956493;28;20030;-76
2022/05/24 02:25:22;;;;;;;7.32;6.63;;;19.10;61.50;;;;;;4972877;28;20022;-76
2022/05/24 02:27:49;;;;;;;7.60;6.43;;;19.10;61.60;;;;;;4973698;28;20054;-76
2022/05/24 02:30:21;;;;;;;7.57;6.78;;;19.10;61.60;;;;;;4972488;28;20379;-75
2022/05/24 02:32:47;;;;;;;8.02;6.47;;;19.10;61.60;;;;;;4972108;28;20033;-76
2022/05/24 02:35:13;;;;;;;7.07;6.15;;;19.10;61.60;;;;;;4973826;28;20026;-75
2022/05/24 02:37:39;;;;;;;7.53;6.28;;;19.10;61.60;;;;;;4972459;28;20474;-75
2022/05/24 02:42:50;;;;;;;7.65;5.78;;;19.10;61.70;;;;;;4971419;28;20023;-77
2022/05/24 02:45:16;;;;;;;7.10;5.35;;;19.00;61.60;;;;;;4972670;28;20033;-76
2022/05/24 02:47:42;;;;;;;7.93;6.10;;;19.00;61.70;;;;;;4956943;28;20117;-76
2022/05/24 02:50:11;;;;;;;7.40;6.18;;;19.00;61.70;;;;;;4956116;28;20113;-75
2022/05/24 02:52:39;;;;;;;6.18;5.32;;;19.00;61.80;;;;;;4941284;28;20022;-75
2022/05/24 02:55:10;;;;;;;6.47;5.05;;;18.90;61.70;;;;;;4955524;28;20034;-75
2022/05/24 02:57:37;;;;;;;6.30;5.00;;;18.90;61.70;;;;;;4955726;28;20062;-76
2022/05/24 03:00:12;;;;;;;6.22;5.10;;;18.90;61.70;;;;;;4953145;28;20067;-76
2022/05/24 03:02:39;;;;;;;6.47;5.13;;;18.90;61.70;;;;;;4966359;28;20027;-75
2022/05/24 03:05:07;;;;;;;6.53;4.70;;;18.90;61.70;;;;;;4973291;28;20027;-76
2022/05/24 03:10:18;;;;;;;6.03;4.60;;;18.80;61.70;;;;;;4958519;28;20121;-75
2022/05/24 03:15:28;;;;;;;5.37;4.17;;;18.80;61.60;;;;;;4973793;28;20030;-76
2022/05/24 03:17:54;;;;;;;5.22;3.90;;;18.80;61.60;;;;;;4956107;28;20026;-75
2022/05/24 03:20:20;;;;;;;5.18;3.67;;;18.80;61.60;;;;;;4955241;28;20022;-75
2022/05/24 03:22:47;;;;;;;5.43;3.67;;;18.80;61.70;;;;;;4955320;28;20038;-75
2022/05/24 03:25:13;;;;;;;4.68;3.58;;;18.70;61.70;;;;;;4955985;28;20519;-75
2022/05/24 03:27:39;;;;;;;4.85;3.53;;;18.70;61.70;;;;;;4972485;28;20027;-75
2022/05/24 03:30:06;;;;;;;4.20;3.28;;;18.70;61.70;;;;;;4971873;28;20364;-75
2022/05/24 03:32:33;;;;;;;4.97;3.40;;;18.60;61.70;;;;;;4955612;28;20162;-75
2022/05/24 03:35:03;;;;;;;4.35;3.20;;;18.60;61.70;;;;;;4956037;28;20049;-76
2022/05/24 03:37:29;;;;;;;4.97;3.22;;;18.60;61.70;;;;;;4978839;28;20548;-75
2022/05/24 03:39:55;;;;;;;4.40;3.15;;;18.60;61.70;;;;;;4938510;28;20035;-76
2022/05/24 03:42:21;;;;;;;4.30;3.25;;;18.60;62.40;;;;;;4971383;28;20029;-75
2022/05/24 03:44:47;;;;;;;4.05;2.75;;;18.60;61.70;;;;;;4954928;28;20117;-76
2022/05/24 03:47:13;;;;;;;5.00;2.85;;;18.50;61.70;;;;;;4971372;28;20122;-75
2022/05/24 03:49:39;;;;;;;4.80;3.00;;;18.50;61.70;;;;;;4954917;28;20450;-76
2022/05/24 03:52:04;;;;;;;3.70;2.83;;;18.50;61.70;;;;;;4972068;28;20027;-76
2022/05/24 03:54:30;;;;;;;4.25;2.70;;;18.50;61.70;;;;;;4971557;28;20039;-75
2022/05/24 03:59:41;;;;;;;4.18;2.65;;;18.50;61.80;;;;;;4953520;28;20039;-75
2022/05/24 04:02:07;;;;;;;3.80;2.40;;;18.40;61.70;;;;;;4952895;28;20034;-76
2022/05/24 04:04:32;;;;;;;3.40;2.47;;;18.40;61.80;;;;;;4971027;28;20150;-75
2022/05/24 04:06:58;;;;;;;3.55;2.30;;;18.40;61.90;;;;;;4970731;28;20107;-77
2022/05/24 04:09:24;;;;;;;4.28;2.53;;;18.40;61.80;;;;;;4970703;28;20078;-75
2022/05/24 04:11:53;;;;;;;2.90;2.28;;;18.30;61.80;;;;;;4970890;28;20483;-76
2022/05/24 04:14:19;;;;;;;4.18;2.45;;;18.30;61.90;;;;;;4978568;28;20050;-75
2022/05/24 04:16:45;;;;;;;3.47;2.28;;;18.30;61.90;;;;;;4970779;28;20449;-76
2022/05/24 04:19:11;;;;;;;3.58;2.45;;;18.30;61.90;;;;;;4970267;28;20031;-75
2022/05/24 04:21:36;;;;;;;4.47;2.13;;;18.30;61.90;;;;;;4970827;28;20023;-76
2022/05/24 04:24:02;;;;;;;2.95;2.10;;;18.30;62.00;;;;;;4954996;28;20074;-75
2022/05/24 04:26:28;;;;;;;3.45;2.10;;;18.30;62.00;;;;;;4970703;28;20047;-76
2022/05/24 04:28:54;;;;;;;3.17;2.08;;;18.20;62.00;;;;;;4970043;28;20479;-75
2022/05/24 04:31:20;;;;;;;2.75;2.28;;;18.30;62.00;;;;;;4970412;28;20412;-75
2022/05/24 04:33:46;;;;;;;3.70;2.60;;;18.20;62.00;;;;;;4954318;28;20037;-76
2022/05/24 04:36:11;;;;;;;2.70;2.20;;;18.20;62.00;;;;;;4954444;28;20035;-75
2022/05/24 04:38:38;;;;;;;2.85;2.25;;;18.20;62.70;;;;;;4970236;28;20110;-75
2022/05/24 04:43:48;;;;;;;3.95;2.10;;;18.20;62.10;;;;;;4966495;28;20451;-76
2022/05/24 04:46:14;;;;;;;3.10;2.30;;;18.20;62.00;;;;;;4971453;28;20070;-75
2022/05/24 04:48:40;;;;;;;3.38;2.08;;;18.10;62.00;;;;;;4969801;28;20031;-76
2022/05/24 04:51:06;;;;;;;3.53;2.25;;;18.10;62.10;;;;;;4971907;28;20018;-76
2022/05/24 04:53:31;;;;;;;3.17;2.35;;;18.10;62.10;;;;;;4956120;28;20027;-75
2022/05/24 04:55:57;;;;;;;3.28;2.28;;;18.10;62.10;;;;;;4936708;28;20031;-76
2022/05/24 04:58:23;;;;;;;3.60;2.40;;;18.10;62.10;;;;;;4969830;28;20357;-75
2022/05/24 05:00:49;;;;;;;3.00;2.17;;;18.10;62.20;;;;;;4969846;28;20023;-75
2022/05/24 05:03:18;;;;;;;2.92;2.03;;;18.10;62.20;;;;;;4969723;28;20212;-75
2022/05/24 05:05:45;;;;;;;3.55;2.35;;;18.10;62.20;;;;;;4969390;28;20030;-76
2022/05/24 05:08:11;;;;;;;2.75;2.00;;;18.10;62.30;;;;;;4964017;28;20472;-75
2022/05/24 05:10:37;;;;;;;4.07;2.50;;;18.10;62.20;;;;;;5002094;28;20023;-75
2022/05/24 05:13:07;;;;;;;3.40;2.30;;;18.00;62.20;;;;;;4954474;28;20054;-75
2022/05/24 05:15:34;;;;;;;3.50;2.33;;;18.00;62.20;;;;;;4954075;28;20034;-75
2022/05/24 05:18:09;;;;;;;3.47;2.33;;;18.00;62.20;;;;;;4953202;28;20062;-75
2022/05/24 05:20:39;;;;;;;;;;;18.00;62.30;;;;;;4970312;28;20023;-75
2022/05/24 05:23:06;;;;;;;2.17;1.98;;;18.00;62.10;;;;;;4969257;28;19914;-75
2022/05/24 05:25:32;;;;;;;2.78;2.20;;;18.00;62.10;;;;;;4950860;28;20039;-75
2022/05/24 05:27:58;;;;;;;3.70;2.70;;;17.90;62.20;;;;;;4970938;28;20416;-75
2022/05/24 05:33:09;;;;;;;3.08;2.22;;;17.90;62.30;;;;;;4968135;28;20039;-75
2022/05/24 05:35:34;;;;;;;3.03;2.33;;;17.90;62.30;;;;;;4950625;29;20039;-75
2022/05/24 05:38:00;;;;;;;3.47;2.50;;;17.90;62.30;;;;;;4968045;28;20031;-75
2022/05/24 05:40:26;;;;;;;4.03;2.60;;;17.90;62.40;;;;;;4953465;28;20494;-76
2022/05/24 05:42:52;;;;;;;3.50;2.50;;;17.90;62.40;;;;;;4970240;28;20037;-75
2022/05/24 05:45:17;;;;;;;3.22;2.50;;;17.90;62.40;;;;;;4923379;28;20126;-74
2022/05/24 05:47:43;;;;;;;5.38;3.08;;;17.90;62.40;;;;;;4953404;28;20026;-75
2022/05/24 05:50:09;;;;;;;2.92;2.17;;;17.90;62.40;;;;;;4953381;28;20034;-74
2022/05/24 05:52:35;;;;;;;3.60;2.70;;;17.90;63.10;;;;;;4969553;28;20165;-74
2022/05/24 05:55:01;;;;;;;3.45;2.50;;;17.90;62.40;;;;;;4952973;28;20121;-75
2022/05/24 05:57:27;;;;;;;3.53;2.50;;;17.90;62.40;;;;;;4969552;28;20104;-75
2022/05/24 05:59:53;;;;;;;3.85;2.47;;;17.90;62.50;;;;;;4970503;28;20027;-75
2022/05/24 06:02:18;;;;;;;3.17;2.53;;;17.90;62.50;;;;;;4968731;28;20065;-75
2022/05/24 06:04:44;;;;;;;3.67;2.53;;;17.90;62.50;;;;;;4969303;28;20031;-75
2022/05/24 06:07:10;;;;;;;4.00;2.65;;;17.90;62.50;;;;;;4950000;28;20402;-75
2022/05/24 06:09:37;;;;;;;3.17;2.78;;;17.80;62.50;;;;;;4969332;28;20026;-75
2022/05/24 06:12:03;;;;;;;2.95;2.65;;;17.80;62.50;;;;;;4953314;28;20035;-76
2022/05/24 06:14:29;;;;;;;3.45;2.83;;;17.90;62.50;;;;;;4944838;28;20118;-76
2022/05/24 06:16:55;;;;;;;3.70;2.97;;;17.80;62.50;;;;;;4970214;28;20035;-75
2022/05/24 06:19:21;;;;;;;3.50;2.63;;;17.80;62.50;;;;;;4953537;28;20380;-76
2022/05/24 06:21:47;;;;;;;4.07;3.03;;;17.80;62.60;;;;;;4978303;28;20035;-75
2022/05/24 06:24:14;;;;;;;3.92;2.83;;;17.80;62.60;;;;;;4953240;28;20424;-75
2022/05/24 06:26:40;;;;;;;3.42;2.92;;;17.80;62.60;;;;;;4968670;28;20035;-75
2022/05/24 06:29:06;;;;;;;4.97;3.00;;;17.80;62.60;;;;;;4969306;28;20030;-76
2022/05/24 06:31:32;;;;;;;3.83;3.20;;;17.80;62.60;;;;;;4968784;28;20056;-75
2022/05/24 06:33:58;;;;;;;3.70;2.80;;;17.80;62.60;;;;;;4969112;28;20023;-76
2022/05/24 06:36:24;;;;;;;3.97;3.00;;;17.80;62.60;;;;;;4949606;28;20035;-75
2022/05/24 06:38:49;;;;;;;3.83;3.05;;;17.80;62.60;;;;;;4935753;28;20447;-75
2022/05/24 06:41:16;;;;;;;3.28;2.75;;;17.80;62.60;;;;;;4937212;28;20443;-75
2022/05/24 06:43:41;;;;;;;3.55;3.08;;;17.80;62.60;;;;;;4969819;28;20110;-75
2022/05/24 06:46:08;;;;;;;4.03;2.58;;;17.80;62.60;;;;;;4958327;28;20821;-75
2022/05/24 06:48:38;;;;;;;3.72;2.95;;;17.80;62.70;;;;;;4968872;28;20035;-77
2022/05/24 06:51:23;;;;;;;3.45;2.67;;;17.80;62.70;;;;;;4970587;28;20039;-75
2022/05/24 06:53:49;;;;;;;4.10;2.80;;;17.80;62.80;;;;;;4972090;28;20019;-75
2022/05/24 06:56:16;;;;;;;2.92;2.50;;;17.80;62.60;;;;;;4961224;28;20369;-75
2022/05/24 06:58:42;;;;;;;3.80;2.97;;;17.80;62.60;;;;;;4973078;28;20038;-76
2022/05/24 07:03:55;;;;;;;3.50;2.50;;;17.80;62.70;;;;;;4972752;28;20034;-75
2022/05/24 07:06:24;;;;;;;3.85;2.85;;;17.80;62.70;;;;;;4955234;28;20047;-75
2022/05/24 07:08:50;;;;;;;3.20;2.83;;;17.80;62.70;;;;;;4971581;28;20019;-76
2022/05/24 07:11:18;;;;;;;3.80;2.90;;;17.80;62.70;;;;;;4973322;28;20089;-76
2022/05/24 07:13:44;;;;;;;3.63;2.70;;;17.80;62.80;;;;;;4959085;28;20058;-77
2022/05/24 07:16:10;;;;;;;3.75;2.83;;;17.80;62.70;;;;;;4952848;29;20383;-76
2022/05/24 07:18:37;;;;;;;3.63;2.83;;;17.80;62.80;;;;;;4970482;28;20023;-77
2022/05/24 07:21:05;;;;;;;3.72;2.85;;;17.90;62.80;;;;;;4971491;28;20459;-76
2022/05/24 07:23:36;;;;;;;3.85;2.75;;;17.80;62.80;;;;;;4974106;28;20058;-76
2022/05/24 07:26:17;;;;;;;4.13;2.78;;;17.90;62.90;;;;;;4971557;28;20039;-77
2022/05/24 07:28:43;;;;;;;4.22;3.03;;;17.80;63.00;;;;;;4973555;28;20035;-76
2022/05/24 07:31:10;;;;;;;3.88;3.00;;;17.90;62.80;;;;;;4971699;28;20030;-76
2022/05/24 07:33:36;;;;;;;3.90;2.88;;;17.90;62.90;;;;;;4971957;28;20019;-76
2022/05/24 07:36:06;;;;;;;3.40;2.88;;;17.90;62.90;;;;;;4955404;28;20033;-76
2022/05/24 07:38:33;;;;;;;3.17;2.88;;;17.90;62.90;;;;;;4971725;28;20038;-77
2022/05/24 07:46:28;;;;;;;4.30;2.72;;;18.00;62.80;;;;;;4971504;28;20039;-76
2022/05/24 07:48:54;;;;;;;4.43;3.08;;;18.00;62.70;;;;;;4970910;28;20117;-77
2022/05/24 07:51:20;;;;;;;3.05;2.75;;;18.00;62.70;;;;;;4971039;28;20039;-76
2022/05/24 07:53:46;;;;;;;3.00;2.70;;;18.10;62.80;;;;;;4929939;28;20025;-79
2022/05/24 07:56:15;;;;;;;4.47;3.13;;;18.10;62.70;;;;;;4938867;28;20043;-76
2022/05/24 07:58:42;;;;;;;3.03;2.63;;;18.10;63.40;;;;;;4952260;28;20086;-78
2022/05/24 08:01:08;;;;;;;3.03;2.65;;;18.20;63.40;;;;;;4976122;28;20031;-76
2022/05/24 08:03:34;;;;;;;3.10;2.80;;;18.20;62.60;;;;;;4970925;28;20063;-76
2022/05/24 08:06:00;;;;;;;2.88;2.63;;;18.20;62.60;;;;;;4970084;28;20081;-76
2022/05/24 08:08:26;;;;;;;3.92;2.72;;;18.20;62.50;;;;;;4972744;28;20118;-76
2022/05/24 08:10:51;;;;;;;2.88;2.58;;;18.20;62.50;;;;;;4955190;28;20082;-77
2022/05/24 08:13:19;;;;;;;3.17;2.58;;;18.30;62.40;;;;;;4938692;28;20055;-77
2022/05/24 08:15:46;;;;;;;3.00;2.70;;;18.30;62.40;;;;;;4972315;28;20074;-77
2022/05/24 08:18:12;;;;;;;4.10;2.80;;;18.40;62.40;;;;;;4938444;28;20282;-76
2022/05/24 08:20:38;;;;;;;3.63;2.80;;;18.40;62.30;;;;;;4954424;28;20049;-76
2022/05/24 08:23:05;;;;;;;2.63;2.42;;;18.40;62.30;;;;;;4954586;28;20038;-76
2022/05/24 08:25:32;;;;;;;3.30;2.75;;;18.50;62.30;;;;;;4938737;28;20110;-76
2022/05/24 08:28:02;;;;;;;3.50;2.75;;;18.50;62.10;;;;;;4970461;28;20035;-77
2022/05/24 08:30:28;;;;;;;4.10;2.60;;;18.50;62.10;;;;;;4970273;28;20027;-76
2022/05/24 08:32:56;;;;;;;3.08;2.40;;;18.60;62.00;;;;;;4944593;28;20424;-76
2022/05/24 08:35:23;;;;;;;2.50;2.30;;;18.60;61.90;;;;;;4969887;28;20200;-75
2022/05/24 08:37:49;;;;;;;2.55;2.35;;;18.70;61.90;;;;;;4973540;28;20026;-76
2022/05/24 08:40:18;;;;;;;3.67;2.42;;;18.70;61.80;;;;;;4970006;28;20348;-76
2022/05/24 08:43:04;;;;;;;3.28;2.30;;;18.80;61.80;;;;;;4954714;28;20026;-76
2022/05/24 08:48:51;;;;;;;2.38;2.15;;;18.80;61.60;;;;;;4970091;28;20039;-77
2022/05/24 08:51:41;;;;;;;2.33;2.03;;;18.90;61.70;;;;;;4969907;28;20019;-76
2022/05/24 08:54:12;;;;;;;2.22;2.03;;;18.90;61.60;;;;;;4969581;28;20089;-76
2022/05/24 08:56:46;;;;;;;2.05;1.88;;;19.00;61.50;;;;;;4970045;28;20046;-77
2022/05/24 08:59:26;;;;;;;2.17;1.90;;;19.00;61.50;;;;;;4954185;28;20041;-77
2022/05/24 09:01:53;;;;;;;1.95;1.80;;;19.00;61.50;;;;;;4977955;28;20479;-77
2022/05/24 09:04:19;;;;;;;2.00;1.85;;;19.10;61.30;;;;;;4952070;28;20031;-76
2022/05/24 09:06:57;;;;;;;1.95;1.75;;;19.20;61.30;;;;;;4969942;28;20118;-76
2022/05/24 09:10:02;;;;;;;2.35;2.00;;;19.20;61.30;;;;;;4953467;28;20054;-77
2022/05/24 09:12:53;;;;;;;2.10;1.77;;;19.20;61.30;;;;;;4968895;28;20042;-79
2022/05/24 09:15:53;;;;;;;2.08;1.70;;;19.30;61.20;;;;;;4970405;28;20665;-76
2022/05/24 09:18:33;;;;;;;2.22;1.70;;;19.30;61.20;;;;;;4961327;28;20036;-77
2022/05/24 09:21:00;;;;;;;2.17;1.95;;;19.30;61.10;;;;;;4956699;28;20431;-78
2022/05/24 09:23:31;;;;;;;3.00;1.83;;;19.30;61.10;;;;;;4970484;28;20050;-77
2022/05/24 09:26:10;;;;;;;2.42;1.70;;;19.40;61.30;;;;;;4964925;28;20027;-77
2022/05/24 09:28:42;;;;;;;2.30;1.90;;;19.40;61.30;;;;;;4966943;28;20042;-76
2022/05/24 09:31:13;;;;;;;1.83;1.38;;;19.40;61.20;;;;;;4969504;28;20038;-76
2022/05/24 09:33:41;;;;;;;2.13;1.70;;;19.40;61.20;;;;;;4952708;28;20031;-77
2022/05/24 09:36:07;;;;;;;2.08;1.35;;;19.40;61.20;;;;;;4953210;28;20031;-77
2022/05/24 09:38:39;;;;;;;1.85;1.70;;;19.40;61.20;;;;;;4951465;28;20503;-77
2022/05/24 09:41:22;;;;;;;1.48;1.38;;;19.50;61.20;;;;;;4970010;28;20054;-76
2022/05/24 09:44:06;;;;;;;1.50;1.40;;;19.50;61.20;;;;;;4970530;28;20026;-77
2022/05/24 09:46:36;;;;;;;1.50;1.40;;;19.60;61.30;;;;;;4967179;28;20031;-77
2022/05/24 09:49:18;;;;;;;1.60;1.50;;;19.60;61.10;;;;;;4969326;28;20432;-77
2022/05/24 09:51:45;;;;;;;3.05;1.58;;;19.60;61.20;;;;;;4969262;28;20033;-77
2022/05/24 09:54:13;;;;;;;2.35;1.50;;;19.70;61.10;;;;;;4972776;28;20026;-78
2022/05/24 09:56:40;;;;;;;1.80;1.52;;;19.70;61.10;;;;;;4970712;28;20081;-77
2022/05/24 09:59:23;;;;;;;1.50;1.40;;;19.70;61.00;;;;;;4970153;28;20031;-77
2022/05/24 10:01:50;;;;;;;1.52;1.42;;;19.70;61.00;;;;;;4953867;28;20033;-76
2022/05/24 10:04:22;;;;;;;2.72;1.35;;;19.80;60.90;;;;;;4950404;28;20070;-78
2022/05/24 10:07:20;;;;;;;1.60;1.50;;;19.80;60.90;;;;;;4958595;28;20073;-78
2022/05/24 10:10:03;;;;;;;1.52;1.42;;;19.90;60.90;;;;;;4952702;28;20046;-77
2022/05/24 10:12:41;;;;;;;2.13;1.42;;;19.90;61.40;;;;;;4953450;28;20029;-76
2022/05/24 10:15:22;;;;;;;2.22;1.50;;;20.00;60.80;;;;;;4963569;28;20070;-77
2022/05/24 10:18:08;;;;;;;1.33;1.23;;;20.00;60.80;;;;;;4951917;28;20050;-77
2022/05/24 10:21:09;;;;;;;1.42;1.30;;;20.10;60.70;;;;;;4953279;28;20034;-77
2022/05/24 10:24:27;;;;;;;1.35;1.15;;;20.10;60.60;;;;;;4966917;28;20022;-78
2022/05/24 10:27:03;;;;;;;1.40;1.23;;;20.20;60.60;;;;;;4932399;29;20071;-77
2022/05/24 10:29:41;;;;;;;1.45;1.35;;;20.20;60.30;;;;;;4968346;28;20535;-76
2022/05/24 10:38:17;;;;;;;2.35;1.30;;;20.30;60.30;;;;;;4965102;28;20019;-77
2022/05/24 10:38:59;;;;;;;0.98;0.98;;;20.30;60.20;;;;;;4970461;28;20058;-77
2022/05/24 10:41:33;;;;;;;1.17;1.00;;;20.40;60.00;;;;;;4967359;28;20027;-76
2022/05/24 10:44:11;;;;;;;1.25;1.15;;;20.50;59.90;;;;;;4972141;28;20033;-77
2022/05/24 10:47:08;;;;;;;1.10;1.10;;;20.50;60.00;;;;;;4952939;28;20062;-78
2022/05/24 10:49:50;;;;;;;0.90;0.90;;;20.50;60.00;;;;;;4969291;28;20015;-78
2022/05/24 10:52:34;;;;;;;1.02;0.93;;;20.60;59.90;;;;;;4963982;28;20535;-77
2022/05/24 10:55:06;;;;;;;1.20;1.10;;;20.60;59.90;;;;;;4973257;28;20030;-78
2022/05/24 10:57:54;;;;;;;0.85;0.85;;;20.60;59.70;;;;;;4972750;28;20158;-74
2022/05/24 11:00:23;;;;;;;1.40;1.13;;;20.70;59.80;;;;;;4972682;28;20098;-77
2022/05/24 11:03:07;;;;;;;0.98;0.90;;;20.80;59.70;;;;;;4972761;28;20027;-80
2022/05/24 11:05:44;;;;;;;1.50;1.00;;;20.70;59.70;;;;;;4971613;28;20043;-77
2022/05/24 11:08:29;;;;;;;1.17;1.08;;;20.80;59.60;;;;;;4977307;28;20027;-76
2022/05/24 11:10:57;;;;;;;0.80;0.80;;;20.90;59.60;;;;;;4968423;28;20030;-77
2022/05/24 11:13:38;;;;;;;0.85;0.85;;;20.90;59.50;;;;;;4955578;28;20041;-77
2022/05/24 11:16:12;;;;;;;0.80;0.80;;;20.90;59.50;;;;;;4971943;28;20042;-78
2022/05/24 11:18:40;;;;;;;0.77;0.77;;;21.00;59.50;;;;;;4959635;28;20022;-77
2022/05/24 11:21:27;;;;;;;0.80;0.80;;;21.00;59.40;;;;;;4972242;28;20066;-77
2022/05/24 11:24:01;;;;;;;0.80;0.80;;;21.00;59.40;;;;;;4972316;28;20050;-76
2022/05/24 11:26:35;;;;;;;0.70;0.70;;;21.00;59.30;;;;;;4973032;28;20054;-77
2022/05/24 11:29:28;;;;;;;0.70;0.70;;;21.10;59.30;;;;;;4973348;28;20316;-76
2022/05/24 11:32:01;;;;;;;0.85;0.85;;;21.10;59.30;;;;;;4972153;28;20022;-76
2022/05/24 11:34:35;;;;;;;0.73;0.73;;;21.10;59.20;;;;;;4968071;28;20116;-76
2022/05/24 11:37:26;;;;;;;0.70;0.70;;;21.10;59.20;;;;;;4970638;28;20097;-76
2022/05/24 11:39:53;;;;;;;1.05;0.80;;;21.20;59.20;;;;;;4971727;28;20026;-77
2022/05/24 11:42:24;;;;;;;0.70;0.70;;;21.20;59.20;;;;;;4939701;28;20517;-77
2022/05/24 11:44:51;;;;;;;0.90;0.90;;;21.20;59.20;;;;;;4973475;28;20042;-76
2022/05/24 11:47:55;;;;;;;1.33;0.90;;;21.30;59.20;;;;;;4971465;28;20034;-76
2022/05/24 11:51:04;;;;;;;0.60;0.60;;;21.30;59.40;;;;;;4927812;28;20035;-77
2022/05/24 11:53:38;;;;;;;0.77;0.77;;;21.30;59.20;;;;;;4934809;29;20031;-77
2022/05/24 11:56:10;;;;;;;0.60;0.60;;;21.30;59.20;;;;;;4957287;28;20078;-77
2022/05/24 11:58:36;;;;;;;0.80;0.80;;;21.30;59.20;;;;;;4963915;28;20022;-76
2022/05/24 12:01:15;;;;;;;0.77;0.77;;;21.30;59.20;;;;;;4971677;28;20093;-76
2022/05/24 12:10:06;;;;;;;0.50;0.50;;;21.40;59.30;;;;;;4968537;28;20041;-75
2022/05/24 12:12:45;;;;;;;0.70;0.70;;;21.40;59.10;;;;;;4986255;28;20061;-74
2022/05/24 12:15:11;;;;;;;0.70;0.70;;;21.40;59.20;;;;;;4972131;28;20062;-77
2022/05/24 12:17:36;;;;;;;0.75;0.70;;;21.40;59.20;;;;;;4954723;28;20363;-76
2022/05/24 12:20:04;;;;;;;0.70;0.70;;;21.40;59.10;;;;;;4971041;28;20031;-76
2022/05/24 12:22:33;;;;;;;0.90;0.60;;;21.40;59.10;;;;;;4970906;28;20036;-76
2022/05/24 12:25:05;;;;;;;0.70;0.70;;;21.40;59.20;;;;;;4955391;28;20479;-76
2022/05/24 12:27:46;;;;;;;0.70;0.70;;;21.40;59.30;;;;;;4970645;28;20049;-76
2022/05/24 12:30:34;;;;;;;1.83;0.80;;;21.40;59.20;;;;;;4954529;28;20238;-76
2022/05/24 12:33:33;;;;;;;0.82;0.60;;;21.40;59.30;;;;;;4970836;28;20069;-75
2022/05/24 12:36:11;;;;;;;0.52;0.52;;;21.40;59.20;;;;;;4994798;28;20038;-75
2022/05/24 12:38:38;;;;;;;0.70;0.70;;;21.40;59.20;;;;;;4970699;28;20062;-75
2022/05/24 12:41:32;;;;;;;0.73;0.70;;;21.40;59.20;;;;;;4954730;28;20498;-75
2022/05/24 12:44:04;;;;;;;1.38;0.90;;;21.40;59.30;;;;;;4968717;28;20026;-76
2022/05/24 12:46:35;;;;;;;0.85;0.68;;;21.40;59.20;;;;;;4969956;28;20109;-76
2022/05/24 12:49:24;;;;;;;0.98;0.82;;;21.40;59.20;;;;;;4950702;28;20031;-77
2022/05/24 12:51:56;;;;;;;0.80;0.80;;;21.40;59.30;;;;;;4963999;28;20109;-77
2022/05/24 12:54:33;;;;;;;1.02;0.90;;;21.40;59.20;;;;;;4954179;28;20019;-75
2022/05/24 12:57:15;;;;;;;0.70;0.70;;;21.40;59.30;;;;;;4968494;28;20023;-75
2022/05/24 12:59:49;;;;;;;0.93;0.80;;;21.40;59.20;;;;;;4971570;28;20120;-75
2022/05/24 13:02:28;;;;;;;1.67;0.90;;;21.40;59.00;;;;;;4973217;28;20027;-75
2022/05/24 13:05:11;;;;;;;0.98;0.88;;;21.40;59.00;;;;;;4972608;28;20034;-76
2022/05/24 13:07:49;;;;;;;0.82;0.80;;;21.40;59.00;;;;;;4970886;28;20061;-75
2022/05/24 13:10:31;;;;;;;1.10;0.90;;;21.40;59.00;;;;;;4970132;28;20538;-76
2022/05/24 13:13:03;;;;;;;0.65;0.60;;;21.40;59.00;;;;;;4948342;28;20023;-76
2022/05/24 13:15:31;;;;;;;0.80;0.80;;;21.40;58.80;;;;;;4969322;28;20121;-76
2022/05/24 13:18:02;;;;;;;1.17;0.90;;;21.40;58.80;;;;;;4969896;28;20081;-76
2022/05/24 13:20:42;;;;;;;0.60;0.60;;;21.40;58.80;;;;;;4953821;28;20038;-76
2022/05/24 13:23:28;;;;;;;0.70;0.70;;;21.40;58.80;;;;;;4960832;28;20035;-77
2022/05/24 13:26:15;;;;;;;0.77;0.63;;;21.40;58.80;;;;;;4969229;28;20066;-76
2022/05/24 13:28:48;;;;;;;1.33;0.80;;;21.40;58.80;;;;;;4969795;28;20062;-76
2022/05/24 13:34:29;;;;;;;0.70;0.70;;;21.40;58.70;;;;;;4966682;28;20526;-77
2022/05/24 13:37:01;;;;;;;0.65;0.65;;;21.40;58.60;;;;;;4969238;28;20030;-77
2022/05/24 13:39:39;;;;;;;0.80;0.80;;;21.40;58.60;;;;;;4977060;28;20019;-76
2022/05/24 13:42:09;;;;;;;1.67;0.73;;;21.40;58.60;;;;;;4969167;28;20034;-75
2022/05/24 13:44:38;;;;;;;0.65;0.65;;;21.40;58.50;;;;;;4969277;28;20372;-75
2022/05/24 13:47:23;;;;;;;0.70;0.70;;;21.40;58.40;;;;;;4967500;28;20042;-76
2022/05/24 13:49:50;;;;;;;0.70;0.70;;;21.40;58.40;;;;;;4970562;28;20023;-76
2022/05/24 13:52:21;;;;;;;1.08;0.98;;;21.50;58.40;;;;;;4952229;28;20027;-77
2022/05/24 13:54:49;;;;;;;1.00;0.80;;;21.50;58.40;;;;;;4970495;28;20034;-76